sensor_id;sensor_type;location;lat;lon;timestamp;P1;durP1;ratioP1;P2;durP2;ratioP2
21507;SDS011;10915;54.352;9.074;2023-03-01T00:00:54;27.90;;;19.67;;
21507;SDS011;10915;54.352;9.074;2023-03-01T00:03:26;55.80;;;23.57;;
21507;SDS011;10915;54.352;9.074;2023-03-01T00:05:52;26.83;;;20.20;;
21507;SDS011;10915;54.352;9.074;2023-03-01T00:08:17;27.07;;;20.77;;
21507;SDS011;10915;54.352;9.074;2023-03-01T00:10:43;25.50;;;19.33;;
21507;SDS011;10915;54.352;9.074;2023-03-01T00:13:09;24.53;;;18.97;;
21507;SDS011;10915;54.352;9.074;2023-03-01T00:15:37;25.43;;;18.97;;
21507;SDS011;10915;54.352;9.074;2023-03-01T00:18:04;28.47;;;20.13;;
21507;SDS011;10915;54.352;9.074;2023-03-01T00:20:29;24.13;;;19.87;;
21507;SDS011;10915;54.352;9.074;2023-03-01T00:22:55;21.27;;;17.83;;
21507;SDS011;10915;54.352;9.074;2023-03-01T00:25:20;23.57;;;19.23;;
21507;SDS011;10915;54.352;9.074;2023-03-01T00:27:46;30.63;;;20.53;;
21507;SDS011;10915;54.352;9.074;2023-03-01T00:30:14;28.50;;;20.60;;
21507;SDS011;10915;54.352;9.074;2023-03-01T00:32:39;25.27;;;19.77;;
21507;SDS011;10915;54.352;9.074;2023-03-01T00:35:05;21.57;;;18.10;;
21507;SDS011;10915;54.352;9.074;2023-03-01T00:37:31;20.63;;;18.43;;
21507;SDS011;10915;54.352;9.074;2023-03-01T00:39:57;20.77;;;18.57;;
21507;SDS011;10915;54.352;9.074;2023-03-01T00:42:22;23.77;;;19.30;;
21507;SDS011;10915;54.352;9.074;2023-03-01T00:44:48;25.53;;;19.43;;
21507;SDS011;10915;54.352;9.074;2023-03-01T00:47:13;25.30;;;20.10;;
21507;SDS011;10915;54.352;9.074;2023-03-01T00:49:39;23.67;;;19.23;;
21507;SDS011;10915;54.352;9.074;2023-03-01T00:52:05;24.00;;;18.90;;
21507;SDS011;10915;54.352;9.074;2023-03-01T00:54:31;23.67;;;18.37;;
21507;SDS011;10915;54.352;9.074;2023-03-01T00:56:56;20.07;;;17.63;;
21507;SDS011;10915;54.352;9.074;2023-03-01T00:59:22;25.10;;;17.87;;
21507;SDS011;10915;54.352;9.074;2023-03-01T01:01:48;72.83;;;27.80;;
21507;SDS011;10915;54.352;9.074;2023-03-01T01:04:14;21.30;;;16.27;;
21507;SDS011;10915;54.352;9.074;2023-03-01T01:06:44;22.53;;;17.33;;
21507;SDS011;10915;54.352;9.074;2023-03-01T01:09:12;20.30;;;16.97;;
21507;SDS011;10915;54.352;9.074;2023-03-01T01:11:46;23.70;;;18.50;;
21507;SDS011;10915;54.352;9.074;2023-03-01T01:14:14;105.00;;;31.40;;
21507;SDS011;10915;54.352;9.074;2023-03-01T01:16:40;60.13;;;26.37;;
21507;SDS011;10915;54.352;9.074;2023-03-01T01:19:06;63.53;;;26.20;;
21507;SDS011;10915;54.352;9.074;2023-03-01T01:21:32;41.50;;;21.67;;
21507;SDS011;10915;54.352;9.074;2023-03-01T01:23:58;23.63;;;18.17;;
21507;SDS011;10915;54.352;9.074;2023-03-01T01:26:28;31.40;;;20.13;;
21507;SDS011;10915;54.352;9.074;2023-03-01T01:28:55;35.73;;;20.37;;
21507;SDS011;10915;54.352;9.074;2023-03-01T01:31:22;34.00;;;19.87;;
21507;SDS011;10915;54.352;9.074;2023-03-01T01:33:49;24.23;;;18.13;;
21507;SDS011;10915;54.352;9.074;2023-03-01T01:36:15;25.50;;;18.27;;
21507;SDS011;10915;54.352;9.074;2023-03-01T01:38:42;30.13;;;20.60;;
21507;SDS011;10915;54.352;9.074;2023-03-01T01:41:08;39.67;;;20.00;;
21507;SDS011;10915;54.352;9.074;2023-03-01T01:43:43;31.33;;;19.70;;
21507;SDS011;10915;54.352;9.074;2023-03-01T01:52:03;29.23;;;16.90;;
21507;SDS011;10915;54.352;9.074;2023-03-01T01:54:37;61.40;;;22.63;;
21507;SDS011;10915;54.352;9.074;2023-03-01T01:57:06;39.73;;;20.10;;
21507;SDS011;10915;54.352;9.074;2023-03-01T01:59:35;124.50;;;31.27;;
21507;SDS011;10915;54.352;9.074;2023-03-01T02:02:03;31.13;;;19.03;;
21507;SDS011;10915;54.352;9.074;2023-03-01T02:04:30;27.07;;;17.27;;
21507;SDS011;10915;54.352;9.074;2023-03-01T02:07:06;25.30;;;18.20;;
21507;SDS011;10915;54.352;9.074;2023-03-01T02:09:38;25.10;;;18.17;;
21507;SDS011;10915;54.352;9.074;2023-03-01T02:12:06;30.03;;;19.10;;
21507;SDS011;10915;54.352;9.074;2023-03-01T02:14:32;27.30;;;19.60;;
21507;SDS011;10915;54.352;9.074;2023-03-01T02:16:57;29.87;;;19.77;;
21507;SDS011;10915;54.352;9.074;2023-03-01T02:19:40;28.43;;;19.60;;
21507;SDS011;10915;54.352;9.074;2023-03-01T02:22:27;21.43;;;17.07;;
21507;SDS011;10915;54.352;9.074;2023-03-01T02:27:46;27.30;;;17.40;;
21507;SDS011;10915;54.352;9.074;2023-03-01T02:30:24;57.27;;;20.47;;
21507;SDS011;10915;54.352;9.074;2023-03-01T02:32:51;23.67;;;16.13;;
21507;SDS011;10915;54.352;9.074;2023-03-01T02:35:19;26.83;;;18.17;;
21507;SDS011;10915;54.352;9.074;2023-03-01T02:37:45;95.23;;;27.00;;
21507;SDS011;10915;54.352;9.074;2023-03-01T02:40:17;212.10;;;36.33;;
21507;SDS011;10915;54.352;9.074;2023-03-01T02:42:50;62.37;;;22.90;;
21507;SDS011;10915;54.352;9.074;2023-03-01T02:45:19;26.83;;;18.63;;
21507;SDS011;10915;54.352;9.074;2023-03-01T02:47:47;36.90;;;19.20;;
21507;SDS011;10915;54.352;9.074;2023-03-01T02:53:01;127.27;;;29.30;;
21507;SDS011;10915;54.352;9.074;2023-03-01T02:55:29;19.93;;;15.23;;
21507;SDS011;10915;54.352;9.074;2023-03-01T02:57:55;37.30;;;16.97;;
21507;SDS011;10915;54.352;9.074;2023-03-01T03:00:26;38.90;;;19.50;;
21507;SDS011;10915;54.352;9.074;2023-03-01T03:02:58;80.63;;;23.90;;
21507;SDS011;10915;54.352;9.074;2023-03-01T03:05:25;43.13;;;20.30;;
21507;SDS011;10915;54.352;9.074;2023-03-01T03:07:53;152.30;;;31.73;;
21507;SDS011;10915;54.352;9.074;2023-03-01T03:10:21;265.40;;;40.10;;
21507;SDS011;10915;54.352;9.074;2023-03-01T03:12:52;175.13;;;35.37;;
21507;SDS011;10915;54.352;9.074;2023-03-01T03:15:25;215.33;;;34.60;;
21507;SDS011;10915;54.352;9.074;2023-03-01T03:17:52;204.13;;;34.63;;
21507;SDS011;10915;54.352;9.074;2023-03-01T03:20:20;218.67;;;36.10;;
21507;SDS011;10915;54.352;9.074;2023-03-01T03:22:49;89.93;;;23.80;;
21507;SDS011;10915;54.352;9.074;2023-03-01T03:25:16;122.20;;;26.43;;
21507;SDS011;10915;54.352;9.074;2023-03-01T03:27:43;190.77;;;35.37;;
21507;SDS011;10915;54.352;9.074;2023-03-01T03:30:11;81.57;;;23.97;;
21507;SDS011;10915;54.352;9.074;2023-03-01T03:32:42;242.83;;;40.00;;
21507;SDS011;10915;54.352;9.074;2023-03-01T03:36:00;135.10;;;31.03;;
21507;SDS011;10915;54.352;9.074;2023-03-01T03:38:12;73.57;;;23.53;;
21507;SDS011;10915;54.352;9.074;2023-03-01T03:40:43;55.07;;;18.67;;
21507;SDS011;10915;54.352;9.074;2023-03-01T03:43:13;29.23;;;14.77;;
21507;SDS011;10915;54.352;9.074;2023-03-01T03:45:43;26.47;;;15.17;;
21507;SDS011;10915;54.352;9.074;2023-03-01T03:48:10;31.07;;;15.53;;
21507;SDS011;10915;54.352;9.074;2023-03-01T03:50:36;29.83;;;16.17;;
21507;SDS011;10915;54.352;9.074;2023-03-01T03:53:04;63.47;;;20.73;;
21507;SDS011;10915;54.352;9.074;2023-03-01T03:55:35;43.47;;;18.43;;
21507;SDS011;10915;54.352;9.074;2023-03-01T03:58:04;30.10;;;16.07;;
21507;SDS011;10915;54.352;9.074;2023-03-01T04:00:32;126.23;;;23.67;;
21507;SDS011;10915;54.352;9.074;2023-03-01T04:02:59;43.40;;;16.07;;
21507;SDS011;10915;54.352;9.074;2023-03-01T04:05:25;30.50;;;15.27;;
21507;SDS011;10915;54.352;9.074;2023-03-01T04:07:52;35.30;;;17.03;;
21507;SDS011;10915;54.352;9.074;2023-03-01T04:10:26;53.87;;;18.33;;
21507;SDS011;10915;54.352;9.074;2023-03-01T04:12:53;32.77;;;15.27;;
21507;SDS011;10915;54.352;9.074;2023-03-01T04:15:21;37.13;;;17.50;;
21507;SDS011;10915;54.352;9.074;2023-03-01T04:17:49;40.10;;;16.10;;
21507;SDS011;10915;54.352;9.074;2023-03-01T04:20:21;67.80;;;20.03;;
21507;SDS011;10915;54.352;9.074;2023-03-01T04:22:52;42.27;;;17.80;;
21507;SDS011;10915;54.352;9.074;2023-03-01T04:25:22;41.40;;;16.63;;
21507;SDS011;10915;54.352;9.074;2023-03-01T04:27:48;34.63;;;16.40;;
21507;SDS011;10915;54.352;9.074;2023-03-01T04:30:14;27.30;;;15.33;;
21507;SDS011;10915;54.352;9.074;2023-03-01T04:32:40;54.53;;;19.63;;
21507;SDS011;10915;54.352;9.074;2023-03-01T04:35:06;35.00;;;16.10;;
21507;SDS011;10915;54.352;9.074;2023-03-01T04:37:32;35.03;;;16.33;;
21507;SDS011;10915;54.352;9.074;2023-03-01T04:39:58;52.40;;;18.97;;
21507;SDS011;10915;54.352;9.074;2023-03-01T04:42:24;42.17;;;17.27;;
21507;SDS011;10915;54.352;9.074;2023-03-01T04:44:49;36.23;;;17.30;;
21507;SDS011;10915;54.352;9.074;2023-03-01T04:47:17;76.03;;;20.60;;
21507;SDS011;10915;54.352;9.074;2023-03-01T04:49:43;40.37;;;16.93;;
21507;SDS011;10915;54.352;9.074;2023-03-01T04:52:09;30.70;;;15.80;;
21507;SDS011;10915;54.352;9.074;2023-03-01T04:54:35;27.97;;;16.20;;
21507;SDS011;10915;54.352;9.074;2023-03-01T04:57:01;34.77;;;16.13;;
21507;SDS011;10915;54.352;9.074;2023-03-01T04:59:27;31.00;;;15.97;;
21507;SDS011;10915;54.352;9.074;2023-03-01T05:01:54;32.90;;;15.47;;
21507;SDS011;10915;54.352;9.074;2023-03-01T05:04:21;38.33;;;17.70;;
21507;SDS011;10915;54.352;9.074;2023-03-01T05:06:50;33.20;;;17.30;;
21507;SDS011;10915;54.352;9.074;2023-03-01T05:09:16;31.13;;;17.03;;
21507;SDS011;10915;54.352;9.074;2023-03-01T05:11:42;38.60;;;18.27;;
21507;SDS011;10915;54.352;9.074;2023-03-01T05:14:08;46.37;;;19.20;;
21507;SDS011;10915;54.352;9.074;2023-03-01T05:16:34;31.10;;;17.03;;
21507;SDS011;10915;54.352;9.074;2023-03-01T05:19:02;37.13;;;16.17;;
21507;SDS011;10915;54.352;9.074;2023-03-01T05:21:39;30.07;;;13.10;;
21507;SDS011;10915;54.352;9.074;2023-03-01T05:24:24;25.77;;;12.03;;
21507;SDS011;10915;54.352;9.074;2023-03-01T05:26:51;23.07;;;11.30;;
21507;SDS011;10915;54.352;9.074;2023-03-01T05:29:18;23.70;;;11.43;;
21507;SDS011;10915;54.352;9.074;2023-03-01T05:31:50;23.20;;;11.60;;
21507;SDS011;10915;54.352;9.074;2023-03-01T05:34:38;22.13;;;10.70;;
21507;SDS011;10915;54.352;9.074;2023-03-01T05:37:03;28.00;;;12.10;;
21507;SDS011;10915;54.352;9.074;2023-03-01T05:39:30;17.63;;;10.00;;
21507;SDS011;10915;54.352;9.074;2023-03-01T05:41:57;26.27;;;12.13;;
21507;SDS011;10915;54.352;9.074;2023-03-01T05:44:24;37.60;;;15.43;;
21507;SDS011;10915;54.352;9.074;2023-03-01T05:46:50;31.67;;;14.33;;
21507;SDS011;10915;54.352;9.074;2023-03-01T05:49:16;44.07;;;17.13;;
21507;SDS011;10915;54.352;9.074;2023-03-01T05:51:42;56.63;;;19.60;;
21507;SDS011;10915;54.352;9.074;2023-03-01T05:54:12;40.20;;;18.00;;
21507;SDS011;10915;54.352;9.074;2023-03-01T05:56:38;28.90;;;15.60;;
21507;SDS011;10915;54.352;9.074;2023-03-01T05:59:04;37.30;;;14.87;;
21507;SDS011;10915;54.352;9.074;2023-03-01T06:01:30;25.53;;;13.90;;
21507;SDS011;10915;54.352;9.074;2023-03-01T06:04:00;49.37;;;18.10;;
21507;SDS011;10915;54.352;9.074;2023-03-01T06:06:26;39.83;;;16.13;;
21507;SDS011;10915;54.352;9.074;2023-03-01T06:08:52;25.60;;;12.77;;
21507;SDS011;10915;54.352;9.074;2023-03-01T06:11:18;31.70;;;12.37;;
21507;SDS011;10915;54.352;9.074;2023-03-01T06:13:45;28.10;;;12.87;;
21507;SDS011;10915;54.352;9.074;2023-03-01T06:16:12;33.47;;;13.27;;
21507;SDS011;10915;54.352;9.074;2023-03-01T06:18:39;33.13;;;13.23;;
21507;SDS011;10915;54.352;9.074;2023-03-01T06:21:05;28.33;;;12.03;;
21507;SDS011;10915;54.352;9.074;2023-03-01T06:23:32;21.37;;;12.20;;
21507;SDS011;10915;54.352;9.074;2023-03-01T06:25:58;23.33;;;11.73;;
21507;SDS011;10915;54.352;9.074;2023-03-01T06:28:24;29.33;;;10.80;;
21507;SDS011;10915;54.352;9.074;2023-03-01T06:30:50;23.20;;;10.57;;
21507;SDS011;10915;54.352;9.074;2023-03-01T06:33:16;22.87;;;8.73;;
21507;SDS011;10915;54.352;9.074;2023-03-01T06:35:45;32.77;;;9.53;;
21507;SDS011;10915;54.352;9.074;2023-03-01T06:38:11;26.53;;;8.07;;
21507;SDS011;10915;54.352;9.074;2023-03-01T06:40:39;26.77;;;8.23;;
21507;SDS011;10915;54.352;9.074;2023-03-01T06:43:05;24.20;;;7.60;;
21507;SDS011;10915;54.352;9.074;2023-03-01T06:45:32;21.80;;;7.20;;
21507;SDS011;10915;54.352;9.074;2023-03-01T06:48:04;18.53;;;7.73;;
21507;SDS011;10915;54.352;9.074;2023-03-01T06:50:32;16.13;;;8.07;;
21507;SDS011;10915;54.352;9.074;2023-03-01T06:52:59;13.20;;;7.67;;
21507;SDS011;10915;54.352;9.074;2023-03-01T06:55:25;14.20;;;7.60;;
21507;SDS011;10915;54.352;9.074;2023-03-01T06:57:57;15.43;;;8.80;;
21507;SDS011;10915;54.352;9.074;2023-03-01T07:00:23;12.30;;;7.27;;
21507;SDS011;10915;54.352;9.074;2023-03-01T07:02:50;16.80;;;8.13;;
21507;SDS011;10915;54.352;9.074;2023-03-01T07:05:16;18.40;;;7.43;;
21507;SDS011;10915;54.352;9.074;2023-03-01T07:07:41;21.40;;;5.67;;
21507;SDS011;10915;54.352;9.074;2023-03-01T07:10:07;12.43;;;6.07;;
21507;SDS011;10915;54.352;9.074;2023-03-01T07:12:33;13.63;;;5.93;;
21507;SDS011;10915;54.352;9.074;2023-03-01T07:14:59;17.10;;;6.87;;
21507;SDS011;10915;54.352;9.074;2023-03-01T07:17:25;14.67;;;6.60;;
21507;SDS011;10915;54.352;9.074;2023-03-01T07:19:50;23.63;;;7.77;;
21507;SDS011;10915;54.352;9.074;2023-03-01T07:22:16;15.93;;;7.07;;
21507;SDS011;10915;54.352;9.074;2023-03-01T07:24:42;11.07;;;6.30;;
21507;SDS011;10915;54.352;9.074;2023-03-01T07:27:08;19.60;;;7.07;;
21507;SDS011;10915;54.352;9.074;2023-03-01T07:29:33;14.17;;;7.10;;
21507;SDS011;10915;54.352;9.074;2023-03-01T07:32:01;27.30;;;8.70;;
21507;SDS011;10915;54.352;9.074;2023-03-01T07:34:27;13.60;;;7.23;;
21507;SDS011;10915;54.352;9.074;2023-03-01T07:36:53;11.80;;;6.70;;
21507;SDS011;10915;54.352;9.074;2023-03-01T07:39:19;18.80;;;8.10;;
21507;SDS011;10915;54.352;9.074;2023-03-01T07:41:44;32.47;;;8.97;;
21507;SDS011;10915;54.352;9.074;2023-03-01T07:44:10;63.83;;;10.40;;
21507;SDS011;10915;54.352;9.074;2023-03-01T07:46:36;69.27;;;12.27;;
21507;SDS011;10915;54.352;9.074;2023-03-01T07:49:01;54.80;;;11.37;;
21507;SDS011;10915;54.352;9.074;2023-03-01T07:51:27;46.47;;;11.93;;
21507;SDS011;10915;54.352;9.074;2023-03-01T07:53:53;29.33;;;11.67;;
21507;SDS011;10915;54.352;9.074;2023-03-01T07:56:18;17.77;;;8.50;;
21507;SDS011;10915;54.352;9.074;2023-03-01T07:58:45;104.07;;;14.00;;
21507;SDS011;10915;54.352;9.074;2023-03-01T08:01:15;36.77;;;8.67;;
21507;SDS011;10915;54.352;9.074;2023-03-01T08:03:43;128.73;;;16.07;;
21507;SDS011;10915;54.352;9.074;2023-03-01T08:06:09;44.90;;;9.80;;
21507;SDS011;10915;54.352;9.074;2023-03-01T08:08:36;25.97;;;9.13;;
21507;SDS011;10915;54.352;9.074;2023-03-01T08:11:03;64.70;;;11.80;;
21507;SDS011;10915;54.352;9.074;2023-03-01T08:13:30;21.00;;;8.37;;
21507;SDS011;10915;54.352;9.074;2023-03-01T08:16:02;93.23;;;15.43;;
21507;SDS011;10915;54.352;9.074;2023-03-01T08:18:35;27.47;;;10.83;;
21507;SDS011;10915;54.352;9.074;2023-03-01T08:21:02;23.37;;;9.13;;
21507;SDS011;10915;54.352;9.074;2023-03-01T08:23:32;36.93;;;9.97;;
21507;SDS011;10915;54.352;9.074;2023-03-01T08:26:31;15.80;;;8.10;;
21507;SDS011;10915;54.352;9.074;2023-03-01T08:28:50;16.53;;;8.40;;
21507;SDS011;10915;54.352;9.074;2023-03-01T08:33:42;47.80;;;10.37;;
21507;SDS011;10915;54.352;9.074;2023-03-01T08:36:08;49.20;;;10.40;;
21507;SDS011;10915;54.352;9.074;2023-03-01T08:38:34;16.23;;;8.60;;
21507;SDS011;10915;54.352;9.074;2023-03-01T08:41:01;18.00;;;9.27;;
21507;SDS011;10915;54.352;9.074;2023-03-01T08:43:27;23.40;;;9.67;;
21507;SDS011;10915;54.352;9.074;2023-03-01T08:45:53;44.10;;;10.70;;
21507;SDS011;10915;54.352;9.074;2023-03-01T08:48:26;16.57;;;8.50;;
21507;SDS011;10915;54.352;9.074;2023-03-01T08:50:55;20.60;;;9.13;;
21507;SDS011;10915;54.352;9.074;2023-03-01T08:53:21;33.80;;;10.07;;
21507;SDS011;10915;54.352;9.074;2023-03-01T08:55:46;13.43;;;8.07;;
21507;SDS011;10915;54.352;9.074;2023-03-01T08:58:12;23.77;;;7.60;;
21507;SDS011;10915;54.352;9.074;2023-03-01T09:00:38;28.67;;;7.80;;
21507;SDS011;10915;54.352;9.074;2023-03-01T09:03:05;33.13;;;8.30;;
21507;SDS011;10915;54.352;9.074;2023-03-01T09:05:31;11.37;;;6.13;;
21507;SDS011;10915;54.352;9.074;2023-03-01T09:07:58;19.20;;;6.63;;
21507;SDS011;10915;54.352;9.074;2023-03-01T09:10:23;14.20;;;6.23;;
21507;SDS011;10915;54.352;9.074;2023-03-01T09:12:49;13.93;;;6.07;;
21507;SDS011;10915;54.352;9.074;2023-03-01T09:15:16;19.13;;;6.80;;
21507;SDS011;10915;54.352;9.074;2023-03-01T09:17:41;21.17;;;7.07;;
21507;SDS011;10915;54.352;9.074;2023-03-01T09:20:07;14.23;;;6.57;;
21507;SDS011;10915;54.352;9.074;2023-03-01T09:22:33;14.13;;;6.60;;
21507;SDS011;10915;54.352;9.074;2023-03-01T09:25:00;16.17;;;7.97;;
21507;SDS011;10915;54.352;9.074;2023-03-01T09:27:25;14.80;;;7.03;;
21507;SDS011;10915;54.352;9.074;2023-03-01T09:29:51;16.40;;;7.50;;
21507;SDS011;10915;54.352;9.074;2023-03-01T09:32:17;13.73;;;7.37;;
21507;SDS011;10915;54.352;9.074;2023-03-01T09:34:42;12.33;;;7.20;;
21507;SDS011;10915;54.352;9.074;2023-03-01T09:37:28;10.63;;;6.60;;
21507;SDS011;10915;54.352;9.074;2023-03-01T09:39:54;13.67;;;6.97;;
21507;SDS011;10915;54.352;9.074;2023-03-01T09:42:20;23.53;;;9.00;;
21507;SDS011;10915;54.352;9.074;2023-03-01T09:47:17;14.17;;;8.00;;
21507;SDS011;10915;54.352;9.074;2023-03-01T09:49:45;13.67;;;8.23;;
21507;SDS011;10915;54.352;9.074;2023-03-01T09:52:23;14.67;;;8.00;;
21507;SDS011;10915;54.352;9.074;2023-03-01T09:54:58;10.93;;;7.07;;
21507;SDS011;10915;54.352;9.074;2023-03-01T09:57:26;10.77;;;7.43;;
21507;SDS011;10915;54.352;9.074;2023-03-01T10:06:10;11.33;;;6.87;;
21507;SDS011;10915;54.352;9.074;2023-03-01T10:08:46;18.70;;;8.97;;
21507;SDS011;10915;54.352;9.074;2023-03-01T10:13:46;18.77;;;9.20;;
21507;SDS011;10915;54.352;9.074;2023-03-01T10:16:33;14.53;;;8.93;;
21507;SDS011;10915;54.352;9.074;2023-03-01T10:19:02;19.77;;;8.67;;
21507;SDS011;10915;54.352;9.074;2023-03-01T10:21:30;21.97;;;9.77;;
21507;SDS011;10915;54.352;9.074;2023-03-01T10:23:59;15.97;;;9.13;;
21507;SDS011;10915;54.352;9.074;2023-03-01T10:26:55;19.63;;;9.17;;
21507;SDS011;10915;54.352;9.074;2023-03-01T10:29:25;15.30;;;8.60;;
21507;SDS011;10915;54.352;9.074;2023-03-01T10:31:59;17.20;;;8.53;;
21507;SDS011;10915;54.352;9.074;2023-03-01T10:34:29;19.50;;;10.00;;
21507;SDS011;10915;54.352;9.074;2023-03-01T10:36:58;14.37;;;8.87;;
21507;SDS011;10915;54.352;9.074;2023-03-01T10:39:32;14.97;;;8.70;;
21507;SDS011;10915;54.352;9.074;2023-03-01T10:41:59;19.53;;;9.63;;
21507;SDS011;10915;54.352;9.074;2023-03-01T10:47:08;21.10;;;10.27;;
21507;SDS011;10915;54.352;9.074;2023-03-01T10:49:55;14.47;;;8.63;;
21507;SDS011;10915;54.352;9.074;2023-03-01T10:52:27;12.07;;;8.17;;
21507;SDS011;10915;54.352;9.074;2023-03-01T10:54:59;11.57;;;7.87;;
21507;SDS011;10915;54.352;9.074;2023-03-01T10:57:29;14.27;;;9.60;;
21507;SDS011;10915;54.352;9.074;2023-03-01T11:00:13;16.80;;;9.40;;
21507;SDS011;10915;54.352;9.074;2023-03-01T11:02:41;16.27;;;9.90;;
21507;SDS011;10915;54.352;9.074;2023-03-01T11:07:46;14.10;;;8.40;;
21507;SDS011;10915;54.352;9.074;2023-03-01T11:10:24;12.17;;;8.90;;
21507;SDS011;10915;54.352;9.074;2023-03-01T11:13:05;11.53;;;7.97;;
21507;SDS011;10915;54.352;9.074;2023-03-01T11:15:41;12.30;;;8.37;;
21507;SDS011;10915;54.352;9.074;2023-03-01T11:18:21;12.17;;;9.07;;
21507;SDS011;10915;54.352;9.074;2023-03-01T11:20:48;11.97;;;8.90;;
21507;SDS011;10915;54.352;9.074;2023-03-01T11:23:16;12.73;;;9.00;;
21507;SDS011;10915;54.352;9.074;2023-03-01T11:25:43;12.30;;;8.23;;
21507;SDS011;10915;54.352;9.074;2023-03-01T11:28:29;13.80;;;8.70;;
21507;SDS011;10915;54.352;9.074;2023-03-01T11:36:27;13.57;;;9.80;;
21507;SDS011;10915;54.352;9.074;2023-03-01T11:42:20;13.33;;;9.03;;
21507;SDS011;10915;54.352;9.074;2023-03-01T11:44:52;12.37;;;9.53;;
21507;SDS011;10915;54.352;9.074;2023-03-01T11:47:28;12.43;;;9.93;;
21507;SDS011;10915;54.352;9.074;2023-03-01T11:50:10;11.87;;;9.23;;
21507;SDS011;10915;54.352;9.074;2023-03-01T12:01:28;15.13;;;12.10;;
21507;SDS011;10915;54.352;9.074;2023-03-01T12:11:35;12.87;;;10.93;;
21507;SDS011;10915;54.352;9.074;2023-03-01T12:25:45;13.33;;;11.10;;
21507;SDS011;10915;54.352;9.074;2023-03-01T12:28:18;13.67;;;10.90;;
21507;SDS011;10915;54.352;9.074;2023-03-01T12:33:43;15.43;;;11.20;;
21507;SDS011;10915;54.352;9.074;2023-03-01T12:45:12;14.77;;;11.53;;
21507;SDS011;10915;54.352;9.074;2023-03-01T12:50:18;17.23;;;13.80;;
21507;SDS011;10915;54.352;9.074;2023-03-01T12:52:47;14.57;;;12.97;;
21507;SDS011;10915;54.352;9.074;2023-03-01T12:55:30;16.60;;;14.33;;
21507;SDS011;10915;54.352;9.074;2023-03-01T13:06:32;17.83;;;13.73;;
21507;SDS011;10915;54.352;9.074;2023-03-01T13:11:59;16.43;;;14.60;;
21507;SDS011;10915;54.352;9.074;2023-03-01T13:16:53;17.90;;;14.10;;
21507;SDS011;10915;54.352;9.074;2023-03-01T13:19:20;17.17;;;14.63;;
21507;SDS011;10915;54.352;9.074;2023-03-01T13:21:48;18.03;;;14.67;;
21507;SDS011;10915;54.352;9.074;2023-03-01T13:29:48;18.67;;;14.37;;
21507;SDS011;10915;54.352;9.074;2023-03-01T13:32:20;16.33;;;13.53;;
21507;SDS011;10915;54.352;9.074;2023-03-01T13:35:00;17.20;;;14.47;;
21507;SDS011;10915;54.352;9.074;2023-03-01T13:37:33;14.73;;;12.90;;
21507;SDS011;10915;54.352;9.074;2023-03-01T13:40:02;17.17;;;14.17;;
21507;SDS011;10915;54.352;9.074;2023-03-01T13:42:52;15.33;;;13.17;;
21507;SDS011;10915;54.352;9.074;2023-03-01T13:48:08;16.23;;;13.77;;
21507;SDS011;10915;54.352;9.074;2023-03-01T13:50:36;17.03;;;13.50;;
21507;SDS011;10915;54.352;9.074;2023-03-01T13:53:10;17.63;;;12.50;;
21507;SDS011;10915;54.352;9.074;2023-03-01T13:55:43;14.70;;;12.40;;
21507;SDS011;10915;54.352;9.074;2023-03-01T13:58:21;14.23;;;11.60;;
21507;SDS011;10915;54.352;9.074;2023-03-01T14:01:00;14.03;;;12.43;;
21507;SDS011;10915;54.352;9.074;2023-03-01T14:03:28;12.60;;;11.03;;
21507;SDS011;10915;54.352;9.074;2023-03-01T14:08:32;13.10;;;11.70;;
21507;SDS011;10915;54.352;9.074;2023-03-01T14:11:06;15.53;;;12.33;;
21507;SDS011;10915;54.352;9.074;2023-03-01T14:19:15;13.33;;;11.07;;
21507;SDS011;10915;54.352;9.074;2023-03-01T14:24:37;11.93;;;10.63;;
21507;SDS011;10915;54.352;9.074;2023-03-01T14:27:11;12.80;;;11.17;;
21507;SDS011;10915;54.352;9.074;2023-03-01T14:29:38;14.07;;;11.07;;
21507;SDS011;10915;54.352;9.074;2023-03-01T14:32:08;12.13;;;10.60;;
21507;SDS011;10915;54.352;9.074;2023-03-01T14:34:45;11.60;;;9.40;;
21507;SDS011;10915;54.352;9.074;2023-03-01T14:37:28;11.63;;;9.73;;
21507;SDS011;10915;54.352;9.074;2023-03-01T14:39:59;12.33;;;9.27;;
21507;SDS011;10915;54.352;9.074;2023-03-01T14:42:28;10.00;;;8.77;;
21507;SDS011;10915;54.352;9.074;2023-03-01T14:44:57;10.53;;;9.43;;
21507;SDS011;10915;54.352;9.074;2023-03-01T14:47:28;11.37;;;9.90;;
21507;SDS011;10915;54.352;9.074;2023-03-01T14:50:20;12.83;;;10.80;;
21507;SDS011;10915;54.352;9.074;2023-03-01T14:52:51;10.27;;;8.57;;
21507;SDS011;10915;54.352;9.074;2023-03-01T14:55:21;11.40;;;9.37;;
21507;SDS011;10915;54.352;9.074;2023-03-01T14:58:02;10.77;;;8.83;;
21507;SDS011;10915;54.352;9.074;2023-03-01T15:00:32;11.87;;;9.77;;
21507;SDS011;10915;54.352;9.074;2023-03-01T15:03:11;10.87;;;9.67;;
21507;SDS011;10915;54.352;9.074;2023-03-01T15:05:42;12.00;;;9.00;;
21507;SDS011;10915;54.352;9.074;2023-03-01T15:08:15;9.47;;;7.70;;
21507;SDS011;10915;54.352;9.074;2023-03-01T15:10:54;9.50;;;7.67;;
21507;SDS011;10915;54.352;9.074;2023-03-01T15:13:23;8.33;;;7.43;;
21507;SDS011;10915;54.352;9.074;2023-03-01T15:15:51;9.07;;;7.57;;
21507;SDS011;10915;54.352;9.074;2023-03-01T15:18:20;8.13;;;7.23;;
21507;SDS011;10915;54.352;9.074;2023-03-01T15:20:48;9.00;;;7.60;;
21507;SDS011;10915;54.352;9.074;2023-03-01T15:23:23;9.10;;;6.50;;
21507;SDS011;10915;54.352;9.074;2023-03-01T15:25:53;8.20;;;7.07;;
21507;SDS011;10915;54.352;9.074;2023-03-01T15:28:26;7.73;;;6.93;;
21507;SDS011;10915;54.352;9.074;2023-03-01T15:33:36;10.17;;;8.67;;
21507;SDS011;10915;54.352;9.074;2023-03-01T15:36:04;10.10;;;9.00;;
21507;SDS011;10915;54.352;9.074;2023-03-01T15:38:57;11.43;;;9.70;;
21507;SDS011;10915;54.352;9.074;2023-03-01T15:41:46;9.33;;;8.20;;
21507;SDS011;10915;54.352;9.074;2023-03-01T15:44:24;9.67;;;8.60;;
21507;SDS011;10915;54.352;9.074;2023-03-01T15:46:53;10.73;;;8.50;;
21507;SDS011;10915;54.352;9.074;2023-03-01T15:52:05;12.27;;;9.57;;
21507;SDS011;10915;54.352;9.074;2023-03-01T15:54:46;9.63;;;8.60;;
21507;SDS011;10915;54.352;9.074;2023-03-01T15:57:13;10.87;;;9.10;;
21507;SDS011;10915;54.352;9.074;2023-03-01T15:59:41;10.97;;;9.73;;
21507;SDS011;10915;54.352;9.074;2023-03-01T16:02:12;12.67;;;11.30;;
21507;SDS011;10915;54.352;9.074;2023-03-01T16:04:38;14.20;;;11.77;;
21507;SDS011;10915;54.352;9.074;2023-03-01T16:07:05;12.53;;;10.87;;
21507;SDS011;10915;54.352;9.074;2023-03-01T16:09:31;14.40;;;11.97;;
21507;SDS011;10915;54.352;9.074;2023-03-01T16:11:57;15.87;;;11.63;;
21507;SDS011;10915;54.352;9.074;2023-03-01T16:14:23;15.67;;;12.67;;
21507;SDS011;10915;54.352;9.074;2023-03-01T16:16:49;12.70;;;11.50;;
21507;SDS011;10915;54.352;9.074;2023-03-01T16:19:15;13.50;;;12.10;;
21507;SDS011;10915;54.352;9.074;2023-03-01T16:21:41;14.17;;;12.63;;
21507;SDS011;10915;54.352;9.074;2023-03-01T16:24:11;17.40;;;13.97;;
21507;SDS011;10915;54.352;9.074;2023-03-01T16:26:37;15.60;;;13.87;;
21507;SDS011;10915;54.352;9.074;2023-03-01T16:29:03;17.43;;;14.17;;
21507;SDS011;10915;54.352;9.074;2023-03-01T16:31:29;15.37;;;13.77;;
21507;SDS011;10915;54.352;9.074;2023-03-01T16:33:56;14.83;;;12.90;;
21507;SDS011;10915;54.352;9.074;2023-03-01T16:36:24;15.70;;;14.00;;
21507;SDS011;10915;54.352;9.074;2023-03-01T16:38:53;15.90;;;14.17;;